Pagina principale
METAR-TAF:

METAR-TAF

Aeroporti :

Aeroporto Internazionale Principessa Giuliana

Sint Maarten, Antille olandesi

latitudine: 18-03N, longitudine: 063-07W, altezza: 4 m

Osservazione

Il bollettino è stato emesso 38 minuti fa, alle 22:00 UTC
Vento 10 kt da est, variando fra nord/nord-est e est/sud-est
Temperature 26°C
Umidità 70%
Pressione 1019 hPa
Visibilità 10 km o più
Nubi sparse ad un'altezza di 1800 ft

METAR: TNCM 182200Z 08010KT 030V120 9999 SCT018 26/20 Q1019 A3010 NOSIG

Ora: 18:38 (22:38 UTC)

Previsione

Il bollettino è stato emesso 4 ore e 59 minuti fa, alle 17:39 UTC
Previsione valida dal 18 alle 18 UTC al 19 alle 18 UTC
Vento 16 kt da est
Visibilità: 10 km
Poco nuvoloso ad un'altezza di 2000 ft

TAF: TNCM 181739Z 1818/1918 08016KT P6SM FEW020

Osservazioni e previsioni meteorologiche di più di 4000 aeroporti (messaggi METAR e TAF).

Le stazioni disponibili sono rappresentate dai dischi gialli e rossi sulla carta.

Puntare il mouse per vedere il nome della stazione.

Clicca sopra per visualizzare le osservazioni e previsioni meteorologiche.

Per cambiare la mappa : fare clic sui pulsanti verdi con una croce nera per ingrandire, il pulsante verde con un trattino per diminuire, o sulla freccia verde per le mappe adiacenti.


METAR-TAF: